createdAt,value
2022-08-24T00:02:11.109Z,16.94
2022-08-24T00:06:15.220Z,16.82
2022-08-24T00:10:13.562Z,16.88
2022-08-24T00:14:12.127Z,16.93
2022-08-24T00:18:09.279Z,16.92
2022-08-24T00:22:06.404Z,16.81
2022-08-24T00:26:05.414Z,16.81
2022-08-24T00:30:05.915Z,16.86
2022-08-24T00:34:03.654Z,16.62
2022-08-24T00:38:00.774Z,16.68
2022-08-24T00:41:57.873Z,16.75
2022-08-24T00:46:17.071Z,16.78
2022-08-24T00:50:29.697Z,16.55
2022-08-24T00:54:31.999Z,16.64
2022-08-24T00:58:36.773Z,16.67
2022-08-24T01:02:42.228Z,16.64
2022-08-24T01:06:39.630Z,16.63
2022-08-24T01:10:45.492Z,16.62
2022-08-24T01:14:43.591Z,16.45
2022-08-24T01:18:50.478Z,16.29
2022-08-24T01:23:22.711Z,16.19
2022-08-24T01:27:22.924Z,16.02
2022-08-24T01:31:26.095Z,16.14
2022-08-24T01:35:24.126Z,16.12
2022-08-24T01:39:27.023Z,16.05
2022-08-24T01:43:25.004Z,15.99
2022-08-24T01:47:22.355Z,15.79
2022-08-24T01:51:21.333Z,15.69
2022-08-24T01:55:22.471Z,15.90
2022-08-24T01:59:20.811Z,15.86
2022-08-24T02:03:17.948Z,15.76
2022-08-24T02:07:23.248Z,15.83
2022-08-24T02:11:20.431Z,15.83
2022-08-24T02:15:17.431Z,15.76
2022-08-24T02:19:14.645Z,15.59
2022-08-24T02:23:12.163Z,15.62
2022-08-24T02:27:09.351Z,15.33
2022-08-24T02:31:09.798Z,15.58
2022-08-24T02:35:07.266Z,15.42
2022-08-24T02:39:05.872Z,15.51
2022-08-24T02:43:04.560Z,15.20
2022-08-24T02:47:01.770Z,15.28
2022-08-24T02:50:59.239Z,15.34
2022-08-24T02:54:57.686Z,15.38
2022-08-24T02:58:55.111Z,15.24
2022-08-24T03:02:53.319Z,15.42
2022-08-24T03:06:51.228Z,15.25
2022-08-24T03:10:48.326Z,15.15
2022-08-24T03:14:46.924Z,15.08
2022-08-24T03:18:45.551Z,15.05
2022-08-24T03:22:44.912Z,15.13
2022-08-24T03:26:44.267Z,14.94
2022-08-24T03:30:46.826Z,15.18
2022-08-24T03:34:46.645Z,15.12
2022-08-24T03:38:43.709Z,15.02
2022-08-24T03:42:41.115Z,15.23
2022-08-24T03:46:40.685Z,15.13
2022-08-24T03:50:37.748Z,14.92
2022-08-24T03:54:35.083Z,14.67
2022-08-24T03:58:32.194Z,15.05
2022-08-24T04:02:32.869Z,14.82
2022-08-24T04:06:30.727Z,14.89
2022-08-24T04:10:28.883Z,14.68
2022-08-24T04:14:27.392Z,14.79
2022-08-24T04:18:36.748Z,14.80
2022-08-24T04:22:34.382Z,14.46
2022-08-24T04:26:45.730Z,14.85
2022-08-24T04:30:51.519Z,14.77
2022-08-24T04:35:03.871Z,14.89
2022-08-24T04:39:05.426Z,14.91
2022-08-24T04:43:33.162Z,15.10
2022-08-24T04:47:30.307Z,15.01
2022-08-24T04:51:27.394Z,15.04
2022-08-24T04:55:41.234Z,15.03
2022-08-24T04:59:38.314Z,15.28
2022-08-24T05:03:35.432Z,15.30
2022-08-24T05:07:32.477Z,15.02
2022-08-24T05:11:30.108Z,15.53
2022-08-24T05:15:28.038Z,15.55
2022-08-24T05:19:25.532Z,15.83
2022-08-24T05:23:23.283Z,15.75
2022-08-24T05:27:21.350Z,16.03
2022-08-24T05:31:25.453Z,16.06
2022-08-24T05:35:22.538Z,16.15
2022-08-24T05:39:21.267Z,16.32
2022-08-24T05:43:24.559Z,16.31
2022-08-24T05:47:21.779Z,16.44
2022-08-24T05:51:19.406Z,16.68
2022-08-24T05:55:25.484Z,16.86
2022-08-24T05:59:22.836Z,16.88
2022-08-24T06:03:20.249Z,17.13
2022-08-24T06:07:20.745Z,17.34
2022-08-24T06:11:29.961Z,17.51
2022-08-24T06:15:28.326Z,17.48
2022-08-24T06:19:27.203Z,17.77
2022-08-24T06:23:25.303Z,17.86
2022-08-24T06:27:29.982Z,17.96
2022-08-24T06:31:29.208Z,18.02
2022-08-24T06:35:36.625Z,18.32
2022-08-24T06:39:33.840Z,18.46
2022-08-24T06:43:32.523Z,18.76
2022-08-24T06:47:32.327Z,18.99
2022-08-24T06:51:32.528Z,19.28
2022-08-24T06:55:30.983Z,19.45
2022-08-24T06:59:29.562Z,19.69
2022-08-24T07:03:26.961Z,19.77
2022-08-24T07:07:37.619Z,20.08
2022-08-24T07:11:36.144Z,20.27
2022-08-24T07:15:35.671Z,20.29
2022-08-24T07:19:42.433Z,20.60
2022-08-24T07:23:41.161Z,20.66
2022-08-24T07:27:39.802Z,20.81
2022-08-24T07:31:39.932Z,21.01
2022-08-24T07:35:57.590Z,21.22
2022-08-24T07:39:54.919Z,21.58
2022-08-24T07:43:56.765Z,21.57
2022-08-24T07:47:56.032Z,21.93
2022-08-24T07:52:05.872Z,22.33
2022-08-24T07:56:03.961Z,22.52
2022-08-24T08:00:07.072Z,22.93
2022-08-24T08:04:12.249Z,23.64
2022-08-24T08:08:10.093Z,24.94
2022-08-24T08:12:08.269Z,25.73
2022-08-24T08:16:08.571Z,26.28
2022-08-24T08:20:08.976Z,26.09
2022-08-24T08:24:16.736Z,26.59
2022-08-24T08:28:26.215Z,27.12
2022-08-24T08:32:31.389Z,27.58
2022-08-24T08:36:28.655Z,28.08
2022-08-24T08:40:45.363Z,28.89
2022-08-24T08:45:27.170Z,29.32
2022-08-24T08:50:21.963Z,29.95
2022-08-24T08:54:37.361Z,30.68
2022-08-24T08:59:11.422Z,30.79
2022-08-24T09:03:32.474Z,30.30
2022-08-24T09:08:20.020Z,31.44
2022-08-24T09:12:43.735Z,29.89
2022-08-24T09:17:18.602Z,29.68
2022-08-24T09:22:03.439Z,31.52
2022-08-24T09:26:29.247Z,31.95
2022-08-24T09:31:06.851Z,32.44
2022-08-24T09:35:12.534Z,32.26
2022-08-24T09:40:00.517Z,32.90
2022-08-24T09:44:39.636Z,33.19
2022-08-24T09:49:26.886Z,33.09
2022-08-24T09:53:40.767Z,32.46
2022-08-24T09:58:01.906Z,32.33
2022-08-24T10:02:43.831Z,33.47
2022-08-24T10:07:30.046Z,33.48
2022-08-24T10:11:57.591Z,32.13
2022-08-24T10:16:17.780Z,31.34
2022-08-24T10:20:32.857Z,32.56
2022-08-24T10:25:02.562Z,34.52
2022-08-24T10:30:03.450Z,35.42
2022-08-24T10:34:36.135Z,37.09
2022-08-24T10:39:33.255Z,37.20
2022-08-24T10:44:18.658Z,36.88
2022-08-24T10:48:34.689Z,36.50
2022-08-24T10:53:17.891Z,34.57
2022-08-24T10:57:36.452Z,33.79
2022-08-24T11:01:40.126Z,32.53
2022-08-24T11:05:47.873Z,31.33
2022-08-24T11:09:59.089Z,30.65
2022-08-24T11:14:09.610Z,30.32
2022-08-24T11:18:06.750Z,29.10
2022-08-24T11:22:41.666Z,29.76
2022-08-24T11:26:57.327Z,30.58
2022-08-24T11:30:54.427Z,30.89
2022-08-24T11:34:51.688Z,30.96
2022-08-24T11:39:09.391Z,31.26
2022-08-24T11:44:02.090Z,30.83
2022-08-24T11:48:15.679Z,30.42
2022-08-24T11:52:50.734Z,30.45
2022-08-24T11:57:08.477Z,31.00
2022-08-24T12:01:23.931Z,33.53
2022-08-24T12:05:49.299Z,34.00
2022-08-24T12:10:09.831Z,32.29
2022-08-24T12:14:26.702Z,34.78
2022-08-24T12:18:56.667Z,38.55
2022-08-24T12:23:02.692Z,39.33
2022-08-24T12:27:11.439Z,39.18
2022-08-24T12:31:28.363Z,37.83
2022-08-24T12:35:38.207Z,37.49
2022-08-24T12:40:25.375Z,36.17
2022-08-24T12:44:34.674Z,36.57
2022-08-24T12:48:54.937Z,36.30
2022-08-24T12:53:43.495Z,33.91
2022-08-24T12:58:54.645Z,32.38
2022-08-24T13:02:48.283Z,32.53
2022-08-24T13:06:59.913Z,32.13
2022-08-24T13:11:10.587Z,31.27
2022-08-24T13:15:31.652Z,31.26
2022-08-24T13:19:28.672Z,30.68
2022-08-24T13:23:27.419Z,30.28
2022-08-24T13:27:24.785Z,30.58
2022-08-24T13:31:35.036Z,30.55
2022-08-24T13:35:41.082Z,30.01
2022-08-24T13:40:02.789Z,30.39
2022-08-24T13:44:41.742Z,30.68
2022-08-24T13:49:02.763Z,30.71
2022-08-24T13:53:37.383Z,30.22
2022-08-24T13:57:42.318Z,30.30
2022-08-24T14:02:08.051Z,29.90
2022-08-24T14:06:31.994Z,29.19
2022-08-24T14:10:42.715Z,29.60
2022-08-24T14:15:41.929Z,29.57
2022-08-24T14:20:09.893Z,30.01
2022-08-24T14:24:43.850Z,31.27
2022-08-24T14:28:44.012Z,31.76
2022-08-24T14:33:00.333Z,31.63
2022-08-24T14:37:32.955Z,32.92
2022-08-24T14:42:01.005Z,31.22
2022-08-24T14:46:10.947Z,31.51
2022-08-24T14:50:23.501Z,31.42
2022-08-24T14:54:57.563Z,31.65
2022-08-24T14:59:34.243Z,32.01
2022-08-24T15:04:09.031Z,32.77
2022-08-24T15:08:11.781Z,32.33
2022-08-24T15:12:35.404Z,31.97
2022-08-24T15:17:10.566Z,32.48
2022-08-24T15:21:36.171Z,33.78
2022-08-24T15:26:04.836Z,33.11
2022-08-24T15:30:07.906Z,34.78
2022-08-24T15:34:05.446Z,34.19
2022-08-24T15:38:31.584Z,33.99
2022-08-24T15:42:34.638Z,33.50
2022-08-24T15:46:54.310Z,33.21
2022-08-24T15:50:55.142Z,34.82
2022-08-24T15:55:01.383Z,35.64
2022-08-24T15:59:28.387Z,35.87
2022-08-24T16:03:54.767Z,34.62
2022-08-24T16:08:03.213Z,35.12
2022-08-24T16:12:09.127Z,32.56
2022-08-24T16:16:15.933Z,31.91
2022-08-24T16:20:25.170Z,32.38
2022-08-24T16:24:22.044Z,33.72
2022-08-24T16:28:21.815Z,34.23
2022-08-24T16:32:33.038Z,33.11
2022-08-24T16:36:40.470Z,30.87
2022-08-24T16:40:37.827Z,31.03
2022-08-24T16:44:40.578Z,31.38
2022-08-24T16:48:37.627Z,31.22
2022-08-24T16:52:34.689Z,30.78
2022-08-24T16:56:31.774Z,30.89
2022-08-24T17:00:29.279Z,30.96
2022-08-24T17:04:26.650Z,30.92
2022-08-24T17:08:28.578Z,30.34
2022-08-24T17:12:26.948Z,30.50
2022-08-24T17:16:24.111Z,29.99
2022-08-24T17:20:21.313Z,29.97
2022-08-24T17:24:23.032Z,29.56
2022-08-24T17:28:20.088Z,29.82
2022-08-24T17:32:17.081Z,29.67
2022-08-24T17:36:20.416Z,29.51
2022-08-24T17:40:26.393Z,29.38
2022-08-24T17:44:28.995Z,29.07
2022-08-24T17:48:27.497Z,28.65
2022-08-24T17:52:24.509Z,28.30
2022-08-24T17:56:21.777Z,27.62
2022-08-24T18:00:19.549Z,27.01
2022-08-24T18:04:17.246Z,26.58
2022-08-24T18:08:14.772Z,26.14
2022-08-24T18:12:12.259Z,25.81
2022-08-24T18:16:17.923Z,25.49
2022-08-24T18:20:21.342Z,25.11
2022-08-24T18:24:18.635Z,24.76
2022-08-24T18:28:19.982Z,24.62
2022-08-24T18:32:17.923Z,24.46
2022-08-24T18:36:14.999Z,24.30
2022-08-24T18:40:15.691Z,23.86
2022-08-24T18:44:27.204Z,23.84
2022-08-24T18:48:28.227Z,23.76
2022-08-24T18:52:26.662Z,23.61
2022-08-24T18:56:24.821Z,23.46
2022-08-24T19:00:21.931Z,23.26
2022-08-24T19:04:19.060Z,23.07
2022-08-24T19:08:20.020Z,23.11
2022-08-24T19:12:18.214Z,22.98
2022-08-24T19:16:15.318Z,22.79
2022-08-24T19:20:13.797Z,22.80
2022-08-24T19:24:10.929Z,22.63
2022-08-24T19:28:08.294Z,22.56
2022-08-24T19:32:10.093Z,22.60
2022-08-24T19:36:18.181Z,22.52
2022-08-24T19:40:17.434Z,22.55
2022-08-24T19:44:37.674Z,22.43
2022-08-24T19:48:40.073Z,22.40
2022-08-24T19:52:39.979Z,22.35
2022-08-24T19:56:37.031Z,22.10
2022-08-24T20:00:42.653Z,22.11
2022-08-24T20:04:45.332Z,22.01
2022-08-24T20:08:43.730Z,22.00
2022-08-24T20:12:45.698Z,21.91
2022-08-24T20:16:42.910Z,21.88
2022-08-24T20:20:40.479Z,21.81
2022-08-24T20:24:37.538Z,21.86
2022-08-24T20:28:42.686Z,21.75
2022-08-24T20:32:39.747Z,21.66
2022-08-24T20:36:48.217Z,21.46
2022-08-24T20:40:46.322Z,21.55
2022-08-24T20:44:44.690Z,21.47
2022-08-24T20:48:43.153Z,21.59
2022-08-24T20:52:42.251Z,21.55
2022-08-24T20:56:39.443Z,21.30
2022-08-24T21:00:37.501Z,21.24
2022-08-24T21:04:34.606Z,21.30
2022-08-24T21:08:32.672Z,21.22
2022-08-24T21:12:32.712Z,21.07
2022-08-24T21:16:30.067Z,20.79
2022-08-24T21:20:28.125Z,20.73
2022-08-24T21:24:25.966Z,20.78
2022-08-24T21:28:23.186Z,20.66
2022-08-24T21:32:38.706Z,20.60
2022-08-24T21:36:37.096Z,20.57
2022-08-24T21:40:35.660Z,20.55
2022-08-24T21:44:33.702Z,20.38
2022-08-24T21:48:30.719Z,20.16
2022-08-24T21:52:27.793Z,20.20
2022-08-24T21:56:29.126Z,20.35
2022-08-24T22:00:26.224Z,20.09
2022-08-24T22:04:23.308Z,20.24
2022-08-24T22:08:20.361Z,20.05
2022-08-24T22:12:18.414Z,20.11
2022-08-24T22:16:15.508Z,20.00
2022-08-24T22:20:21.709Z,19.96
2022-08-24T22:24:20.551Z,19.82
2022-08-24T22:28:18.040Z,19.84
2022-08-24T22:32:15.365Z,19.87
2022-08-24T22:36:13.831Z,19.80
2022-08-24T22:40:12.753Z,19.73
2022-08-24T22:44:19.460Z,19.58
2022-08-24T22:48:16.575Z,19.56
2022-08-24T22:52:15.474Z,19.60
2022-08-24T22:56:25.613Z,19.39
2022-08-24T23:00:22.952Z,19.42
2022-08-24T23:04:28.934Z,19.25
2022-08-24T23:08:25.930Z,19.27
2022-08-24T23:12:24.350Z,19.17
2022-08-24T23:16:21.415Z,19.24
2022-08-24T23:20:19.339Z,19.35
2022-08-24T23:24:16.528Z,19.32
2022-08-24T23:28:13.529Z,19.26
2022-08-24T23:32:10.660Z,19.21
2022-08-24T23:36:17.582Z,19.04
2022-08-24T23:40:15.271Z,19.08
2022-08-24T23:44:25.997Z,19.01
2022-08-24T23:48:23.011Z,18.87
2022-08-24T23:52:28.383Z,18.86
2022-08-24T23:56:30.799Z,18.71
